CheckWX is a tool to help pilots better visualize weather data.  It is not intended as a substitute for an official pre-flight weather briefing.

15:03:37 UTC

KMRB TAF
Eastern Wv Regional / Shepherd Field Airport
Martinsburg, West Virginia, USA
KMRB 191228Z 1912/2012 VRB03KT 2SM BR BKN002 FM191500 28004KT 5SM BR OVC035 FM191700 29006KT P6SM BKN050 FM192200 32004KT P6SM BKN050

Nov-19@
12:00 UTC

Nov-19 @ 12:00 UTC

Nov-19@
15:00 UTC

Nov-19 @ 15:00 UTC

KMRB 191228Z 1912/2012 VRB03KT 2SM BR BKN002

Expired

Wind
  • Variable at 3 KTS
Conditions
Mist
Cloud Levels
  • Broken at 200' AGL

Nov-19@
15:00 UTC

Nov-19 @ 15:00 UTC

Nov-19@
17:00 UTC

Nov-19 @ 17:00 UTC

FM191500 28004KT 5SM BR OVC035

From

From Standard forecast or significant change

Wind
  • 280° at 4 KTS
Conditions
Mist
Cloud Levels
  • Overcast at 3,500' AGL

Nov-19@
17:00 UTC

Nov-19 @ 17:00 UTC

Nov-19@
22:00 UTC

Nov-19 @ 22:00 UTC

FM191700 29006KT P6SM BKN050

From

From Standard forecast or significant change

Wind
  • 290° at 6 KTS
Cloud Levels
  • Broken at 5,000' AGL

Nov-19@
22:00 UTC

Nov-19 @ 22:00 UTC

Nov-20@
12:00 UTC

Nov-20 @ 12:00 UTC

FM192200 32004KT P6SM BKN050

From

From Standard forecast or significant change

Wind
  • 320° at 4 KTS
Cloud Levels
  • Broken at 5,000' AGL